< < Back
Terminal Aerodrome Forecast


Current Version              Previous Versions:   1  2  3  4  5  6  7  8  9  

Terminal Aerodrome Forecast

774
FTUS42 KCHS 201700
TAFSAV
TAF
KSAV 201737Z 2018/2118 03013G18KT P6SM BKN025
     FM210000 01011KT P6SM BKN035=

Latest METAR

572
SAUS80 KWBC 210700 CCA
MTRSAV
METAR KSAV 210653Z AUTO 35003KT 10SM BKN041 14/09 A3008 RMK AO2 SLP186
T01390094 TSNO


USA.gov is the U.S. government's official web portal to all federal, state and local government web resources and services.